West Farmington, ME (04992)

2:29 PM EDT on May 22, 2015 (GMT -0400)
Fairbanks | | Change Station
CLOSE
Current Station
Personal Weather Station
Location: Farmington, ME
Elevation: 479 ft
Nearby Weather Stations
Active Advisory: Freeze Watch

Elev 479 ft 44.71 °N, 70.19 °W | Updated 23 seconds ago

Mostly Cloudy
Mostly Cloudy
61.9 °F
Feels Like 61.9 °F
N
11.0
Wind Variable Wind from ESE
Gusts 23.0 mph

Today
High -- | Low -- °F
--% Chance of Precip.
Yesterday
High -- | Low -- °F
Precip. -- in
5:05 AM 8:09 PM
Waxing Crescent, 23% visible
Pressure 29.72 in
Visibility 10.0 miles
Clouds Few 2500 ft
Scattered Clouds 3700 ft
Mostly Cloudy 6000 ft
Dew Point 44 °F
Humidity 52%
Rainfall 0.00 in
Snow Depth Not available.
UV 5 out of 12
Pollen 8.00 out of 12
Air Quality Not available.
Flu Activity Regional
METAR KWVL 221815Z 00000KT 10SM FEW025 SCT037 BKN060 16/06 A2972 RMK AO1 P0001

More Conditions Fewer Conditions

Pressure 29.72 in
Visibility 10.0 miles
Clouds Few 2500 ft
Scattered Clouds 3700 ft
Mostly Cloudy 6000 ft
Dew Point 44 °F
Humidity 52%
Rainfall 0.00 in
Snow Depth Not available.
UV 5 out of 12
Pollen 8.00 out of 12
Air Quality Not available.
Flu Activity Regional
METAR KWVL 221815Z 00000KT 10SM FEW025 SCT037 BKN060 16/06 A2972 RMK AO1 P0001

More Conditions Fewer Conditions

10-Day Weather Forecast

Almanac

Astronomy

May. 22, 2015 Rise Set
Actual Time
Civil Twilight
Nautical Twilight
Astronomical Twilight
Moon
Length of Visible Light
Length of Day
Tomorrow will be .
, % of the Moon is Illuminated

Today's Extremes

State Highs State Lows

Community

WunderPhotos

Upload Photos

1,823,273 photos uploaded!

WunderBlogs® & News

Nearby

Air Quality

  Air Quality AQ Index Pollutant
Not available.

Snow Depth

Station Depth Elevation

Earthquake Activity

City Distance Mag. Time & Date
Minimum magnitude displayed is 2.5.

Coastal Water Temperatures

Place Temperature

Stations

Nearby Weather Stations

Station Location Temp. Windchill Dew Point Humidity Wind Precip. Elev Updated Type
                   
Freeze Watch
Statement as of 9:49 AM EDT on May 22, 2015

... Freeze watch remains in effect from 9 PM EDT this evening
through Saturday morning...

* temperatures... in the upper 20s and lower 30s.

* Timing... tonight and early Saturday morning.

* Impacts... sensitive vegetation may freeze.

Precautionary/preparedness actions...

A freeze watch means sub-freezing temperatures are possible.
These conditions could kill crops and other sensitive vegetation.



Schwibs